Aérodrome :
LOGIN :

Register | Disclaimer

   EN    FR    IT 

 

















- Airport Elevation : 512 ft
- IATA code : URO
- Download approach charts


LFOP - Rouen Vallée de Seine

CURRENT METAR :
  • 222330Z AUTO 29006KT 250V340 //// R22///// // NSC 14/11 Q1017

EXPIRED METARs :
  • 222300Z AUTO 28005KT 250V310 //// R22///// // NSC 14/11 Q1017
  • 222230Z AUTO VRB03KT //// R22///// // NSC 14/11 Q1017
  • 222200Z AUTO 30006KT 250V340 //// R22///// // NSC 15/11 Q1017
  • 222130Z AUTO 31005KT 270V330 //// R22///// // NSC 16/11 Q1017
  • 222100Z AUTO 32006KT 290V350 //// R22///// // NSC 16/11 Q1017

TAF TAF LFOP
Valid from the 22 at 18:00 until the 23 at 18:00 UTC


221700Z 2218/2318 31012KT CAVOK
BECMG 2302/2304 BKN006
BECMG 2307/2309 SCT020
ATIS : +33 2 35 80 80 34
Met : +33 2 32 86 52 80
No reported NOTAMs for that airfield.





SOURCES & CREDITS :

   NOAA